메인 페이지
METAR-TAF:

METAR-TAF

공항 :

브라자빌, 콩고

위도: 04-15S, 경도: 015-15E, 고도: 319m

현재 날씨관측

예보는 38분 전, 21:00시(UTC)에 발표되었습니다.
여러 방향의 바람 1kt
온도 25°C
습도 83%
기압 1016 hPa
시정: 7000m
고도 3000ft 상공 구름 조금, 적란운.

METAR: FCBB 012100Z VRB01KT 7000 FEW030CB 25/22 Q1016 RETS NOSIG

시각: 22:38 (21:38 UTC)

예보

예보는 4 시간 38분 전, 17:00시(UTC)에 발표되었습니다.
예보 대상 시간: 01일 18시부터 02일 24시까지 (UTC)
서남서4kt
시정: 8000m
고도 1800ft 상공 구름 조금
고도 3000ft 상공 구름 조금, 적란운.
뇌우
전환 중
01일 20시부터 01일 22시까지 (UTC)
고도 1600ft 상공 구름 보통
확률 30%
02일 05시부터 02일 07시까지 (UTC)
시정: 3000m
박무
전환 중
02일 13시부터 02일 15시까지 (UTC)
고도 2000ft 상공 구름 조금
고도 3000ft 상공 구름 조금, 적란운.
전환 중
02일 17시부터 02일 19시까지 (UTC)
고도 1500ft 상공 구름 보통

TAF: FCBB 011700Z 0118/0224 24004KT 8000 TS FEW018 FEW030CB BECMG 0120/0122 NSW SCT016 PROB30 0205/0207 3000 BR BECMG 0213/0215 FEW020 FEW030CB BECMG 0217/0219 SCT015

4,000개 이상의 공항 관측 자료 및 예보 (METAR 및 TAF 보고).

지도상에서 검색 가능한 기상관측소가 노란 점과 빨간 점으로 표시되어 있습니다.

기상관측소 명을 보려면 표시 위로 마우스를 이동하세요.

날씨 관측과 예보를 보려면 클릭하세요.

지도 변경 : 확대하려면 엑스 표시가 있는 녹색 버튼, 축소하려면 빼기 표시가 있는 녹색 버튼, 다음 페이지의 지도를 보려면 녹색 화살표를 클릭하세요.


METAR-TAF: